Time;durP1;ratioP1;P1;durP2;ratioP2;P2;SDS_P1;SDS_P2;PMS_P1;PMS_P2;Temp;Humidity;BMP_temperature;BMP_pressure;BME280_temperature;BME280_humidity;BME280_pressure;Samples;Min_cycle;Max_cycle;Signal;HPM_P1;HPM_P2
2022/06/18 00:01:48;;;;;;;4.4;2.6;;;;;;;16.37;72.98145;945.7782;;;;
2022/06/18 00:04:18;;;;;;;3.3;2.5;;;;;;;16.3;73.20313;945.7791;;;;
2022/06/18 00:06:50;;;;;;;3.1;2.6;;;;;;;16.23;73.46973;945.7928;;;;
2022/06/18 00:09:14;;;;;;;3.2;2.9;;;;;;;16.13;73.86816;945.7202;;;;
2022/06/18 00:14:06;;;;;;;2.7;2.5;;;;;;;16.18;73.72559;945.7813;;;;
2022/06/18 00:16:37;;;;;;;3.4;2.6;;;;;;;16.19;73.77344;945.827;;;;
2022/06/18 00:19:11;;;;;;;3.8;2.8;;;;;;;16.14;73.44141;945.8134;;;;
2022/06/18 00:21:40;;;;;;;2.9;2.6;;;;;;;16.16;73.80273;945.8334;;;;
2022/06/18 00:24:05;;;;;;;3;2.6;;;;;;;16.11;73.67969;945.8206;;;;
2022/06/18 00:26:32;;;;;;;4;2.4;;;;;;;15.99;74.23633;945.8137;;;;
2022/06/18 00:28:57;;;;;;;3.6;2.8;;;;;;;15.87;74.7832;945.8322;;;;
2022/06/18 00:31:22;;;;;;;3.9;2.8;;;;;;;15.74;75.08496;945.7562;;;;
2022/06/18 00:33:48;;;;;;;3.3;2.6;;;;;;;15.69;75.49219;945.728;;;;
2022/06/18 00:36:13;;;;;;;4.1;2.5;;;;;;;15.55;76.12695;945.6083;;;;
2022/06/18 00:38:42;;;;;;;4.3;2.9;;;;;;;15.42;76.60156;945.7614;;;;
2022/06/18 00:41:07;;;;;;;3.2;2.5;;;;;;;15.59;75.9834;945.6456;;;;
2022/06/18 00:43:32;;;;;;;3.3;2.4;;;;;;;15.61;76.43457;945.5991;;;;
2022/06/18 00:46:01;;;;;;;3.3;3;;;;;;;15.51;76.75391;945.5994;;;;
2022/06/18 00:48:26;;;;;;;3.6;2.8;;;;;;;15.6;76.26172;945.6015;;;;
2022/06/18 00:50:51;;;;;;;3.3;3;;;;;;;15.73;75.75195;945.5739;;;;
2022/06/18 00:53:19;;;;;;;4;2.6;;;;;;;15.58;75.81934;945.5674;;;;
2022/06/18 00:55:44;;;;;;;3.4;2.8;;;;;;;15.56;76.19629;945.5328;;;;
2022/06/18 00:58:10;;;;;;;3.3;3;;;;;;;15.48;76.57617;945.5142;;;;
2022/06/18 01:00:36;;;;;;;5.4;2.9;;;;;;;15.55;76.19629;945.4638;;;;
2022/06/18 01:03:01;;;;;;;2.9;2.6;;;;;;;15.4;76.87402;945.4608;;;;
2022/06/18 01:05:26;;;;;;;3.9;2.6;;;;;;;15.32;77.0791;945.5047;;;;
2022/06/18 01:07:53;;;;;;;2.8;2.5;;;;;;;15.17;77.53809;945.5313;;;;
2022/06/18 01:10:18;;;;;;;3.7;2.4;;;;;;;15.1;77.78906;945.5078;;;;
2022/06/18 01:12:43;;;;;;;3.2;2.8;;;;;;;15.07;78.11914;945.486;;;;
2022/06/18 01:15:13;;;;;;;3.6;2.9;;;;;;;15.24;77.49316;945.4956;;;;
2022/06/18 01:17:42;;;;;;;2.8;2.5;;;;;;;15.22;77.5;945.3641;;;;
2022/06/18 01:20:07;;;;;;;2.9;2.7;;;;;;;14.99;78.61328;945.3065;;;;
2022/06/18 01:22:34;;;;;;;3.7;2.9;;;;;;;14.89;79.28613;945.3093;;;;
2022/06/18 01:25:00;;;;;;;3.4;2.8;;;;;;;14.68;80.10059;945.3353;;;;
2022/06/18 01:27:26;;;;;;;3.1;2.5;;;;;;;14.66;80.5127;945.3369;;;;
2022/06/18 01:29:55;;;;;;;5;3.1;;;;;;;14.64;80.43848;945.3134;;;;
2022/06/18 01:32:19;;;;;;;3.2;2.9;;;;;;;14.54;81.06543;945.303;;;;
2022/06/18 01:34:44;;;;;;;3.2;2.6;;;;;;;14.73;80.17969;945.3163;;;;
2022/06/18 01:37:09;;;;;;;3.3;2.8;;;;;;;14.86;79.52344;945.269;;;;
2022/06/18 01:39:36;;;;;;;3;2.7;;;;;;;14.76;79.66602;945.3044;;;;
2022/06/18 01:42:01;;;;;;;4.4;3.1;;;;;;;14.8;79.76563;945.1747;;;;
2022/06/18 01:44:29;;;;;;;4.1;3.1;;;;;;;14.99;79.09766;945.2631;;;;
2022/06/18 01:46:54;;;;;;;3.2;2.9;;;;;;;14.91;79.11816;945.2605;;;;
2022/06/18 01:49:20;;;;;;;3.9;2.8;;;;;;;14.71;79.98047;945.2128;;;;
2022/06/18 01:51:47;;;;;;;3.2;2.9;;;;;;;14.53;80.77734;945.2557;;;;
2022/06/18 01:54:10;;;;;;;3.3;3;;;;;;;14.67;80.11133;945.1854;;;;
2022/06/18 01:56:38;;;;;;;3.2;2.9;;;;;;;14.84;79.37012;945.1664;;;;
2022/06/18 01:59:03;;;;;;;3.2;2.8;;;;;;;14.88;79.26074;945.1505;;;;
2022/06/18 02:01:28;;;;;;;2.7;2.5;;;;;;;14.86;78.94629;945.128;;;;
2022/06/18 02:03:53;;;;;;;3.3;2.8;;;;;;;14.96;78.67578;945.1066;;;;
2022/06/18 02:06:22;;;;;;;4.1;3;;;;;;;15.01;78.52441;945.1534;;;;
2022/06/18 02:08:47;;;;;;;3.3;2.8;;;;;;;14.86;79.1543;945.1505;;;;
2022/06/18 02:11:14;;;;;;;3.1;2.8;;;;;;;14.94;78.8916;945.1724;;;;
2022/06/18 02:13:39;;;;;;;3.1;2.8;;;;;;;14.9;78.89648;945.2092;;;;
2022/06/18 02:16:09;;;;;;;3.1;2.8;;;;;;;14.88;78.88086;945.185;;;;
2022/06/18 02:18:33;;;;;;;10.6;3.4;;;;;;;14.84;79.02344;945.2193;;;;
2022/06/18 02:20:58;;;;;;;3.9;3.1;;;;;;;14.66;79.80957;945.2053;;;;
2022/06/18 02:23:23;;;;;;;3.8;3;;;;;;;14.85;78.98926;945.1937;;;;
2022/06/18 02:25:52;;;;;;;3.2;2.8;;;;;;;14.69;79.5957;945.2849;;;;
2022/06/18 02:28:17;;;;;;;3.2;2.7;;;;;;;14.62;79.9873;945.2484;;;;
2022/06/18 02:30:45;;;;;;;3.6;2.9;;;;;;;14.59;80.01563;945.3033;;;;
2022/06/18 02:33:11;;;;;;;2.7;2.5;;;;;;;14.53;79.23145;945.2349;;;;
2022/06/18 02:35:36;;;;;;;3.3;2.7;;;;;;;14.57;79.19336;945.2367;;;;
2022/06/18 02:38:05;;;;;;;3;2.6;;;;;;;14.56;79.14648;945.2726;;;;
2022/06/18 02:40:34;;;;;;;3;2.7;;;;;;;14.32;79.67773;945.2707;;;;
2022/06/18 02:42:59;;;;;;;3.8;3;;;;;;;14.55;79.70703;945.2798;;;;
2022/06/18 02:45:24;;;;;;;3.5;2.9;;;;;;;14.74;78.37012;945.2361;;;;
2022/06/18 02:47:55;;;;;;;3.4;2.9;;;;;;;14.69;78.43164;945.2687;;;;
2022/06/18 02:50:20;;;;;;;5.2;3.5;;;;;;;14.56;78.9043;945.2414;;;;
2022/06/18 02:52:45;;;;;;;3.2;2.9;;;;;;;14.54;79.10645;945.2701;;;;
2022/06/18 02:55:10;;;;;;;3.4;3.1;;;;;;;14.6;78.81836;945.2994;;;;
2022/06/18 02:57:35;;;;;;;4.1;3;;;;;;;14.56;78.91602;945.3128;;;;
2022/06/18 03:00:03;;;;;;;3.5;2.9;;;;;;;14.63;78.82324;945.2269;;;;
2022/06/18 03:02:28;;;;;;;2.8;2.6;;;;;;;14.7;78.08887;945.2913;;;;
2022/06/18 03:04:57;;;;;;;3.5;2.7;;;;;;;14.67;77.78223;945.2046;;;;
2022/06/18 03:07:22;;;;;;;3;2.7;;;;;;;14.51;78.30664;945.2828;;;;
2022/06/18 03:12:19;;;;;;;4.9;2.7;;;;;;;14.51;78.49121;945.3173;;;;
2022/06/18 03:14:48;;;;;;;3.1;2.5;;;;;;;14.25;78.78906;945.3143;;;;
2022/06/18 03:17:13;;;;;;;3;2.8;;;;;;;14.31;78.83496;945.2089;;;;
2022/06/18 03:19:38;;;;;;;3.4;2.7;;;;;;;14.26;79.0332;945.3103;;;;
2022/06/18 03:22:06;;;;;;;3.9;2.8;;;;;;;14.41;78.86523;945.2312;;;;
2022/06/18 03:24:31;;;;;;;3;2.7;;;;;;;14.45;78.73438;945.3025;;;;
2022/06/18 03:26:58;;;;;;;4.4;3.1;;;;;;;14.51;79.03223;945.3164;;;;
2022/06/18 03:29:24;;;;;;;4.2;3.1;;;;;;;14.48;79.03906;945.2675;;;;
2022/06/18 03:31:49;;;;;;;4.7;3.1;;;;;;;14.13;80.4834;945.3132;;;;
2022/06/18 03:34:15;;;;;;;3.2;2.9;;;;;;;14.05;81.19336;945.3454;;;;
2022/06/18 03:36:44;;;;;;;3.1;2.8;;;;;;;13.97;81.83594;945.3453;;;;
2022/06/18 03:39:09;;;;;;;4;2.8;;;;;;;13.98;81.49219;945.2445;;;;
2022/06/18 03:41:37;;;;;;;3.9;3;;;;;;;14.13;80.61035;945.2908;;;;
2022/06/18 03:44:03;;;;;;;2.7;2.5;;;;;;;14.37;79.80273;945.2573;;;;
2022/06/18 03:46:33;;;;;;;2.8;2.5;;;;;;;14.29;79.6748;945.3154;;;;
2022/06/18 03:49:04;;;;;;;4.1;2.5;;;;;;;14.11;80.57422;945.3083;;;;
2022/06/18 03:51:29;;;;;;;3;2.2;;;;;;;14.07;80.58887;945.2726;;;;
2022/06/18 03:53:57;;;;;;;4.9;3;;;;;;;14.09;80.58008;945.2753;;;;
2022/06/18 03:56:22;;;;;;;3.6;2.9;;;;;;;14.09;80.77734;945.3306;;;;
2022/06/18 03:58:48;;;;;;;3.1;2.8;;;;;;;14.15;80.7998;945.3494;;;;
2022/06/18 04:02:42;;;;;;;5.1;2.8;;;;;;;14.01;80.86426;945.3848;;;;
2022/06/18 04:05:16;;;;;;;3.6;2.4;;;;;;;13.99;81.31055;945.3663;;;;
2022/06/18 04:07:45;;;;;;;6.3;3.1;;;;;;;14.04;80.68555;945.3253;;;;
2022/06/18 04:10:10;;;;;;;2.7;2.5;;;;;;;14.08;80.20898;945.3056;;;;
2022/06/18 04:12:35;;;;;;;3.2;2.3;;;;;;;14.13;79.58594;945.2322;;;;
2022/06/18 04:15:03;;;;;;;4.1;2.8;;;;;;;14.33;79.18457;945.2186;;;;
2022/06/18 04:17:28;;;;;;;2.4;2.2;;;;;;;14.38;78.61816;945.3063;;;;
2022/06/18 04:19:57;;;;;;;2.6;2.4;;;;;;;14.54;78.00195;945.2181;;;;
2022/06/18 04:22:23;;;;;;;5;2.8;;;;;;;14.64;78.2832;945.2509;;;;
2022/06/18 04:24:47;;;;;;;2.8;2.5;;;;;;;14.69;76.77148;945.2095;;;;
2022/06/18 04:27:18;;;;;;;3.5;2.5;;;;;;;14.78;77.01953;945.1209;;;;
2022/06/18 04:29:42;;;;;;;4.1;2.2;;;;;;;15.03;76.25488;945.157;;;;
2022/06/18 04:32:10;;;;;;;4.7;2.5;;;;;;;15.24;75.5293;945.1298;;;;
2022/06/18 04:34:35;;;;;;;2.7;2.3;;;;;;;15.3;75.2168;945.0008;;;;
2022/06/18 04:37:03;;;;;;;2.8;2.6;;;;;;;15.36;75.15723;945.053;;;;
2022/06/18 04:39:28;;;;;;;3.8;2.5;;;;;;;15.26;75.47656;945.1041;;;;
2022/06/18 04:41:56;;;;;;;4.1;2.5;;;;;;;15.14;76.29688;945.1412;;;;
2022/06/18 04:44:25;;;;;;;4.8;2.8;;;;;;;15.05;76.9043;945.1834;;;;
2022/06/18 04:46:51;;;;;;;3.4;2.7;;;;;;;15;76.52539;945.2224;;;;
2022/06/18 04:49:18;;;;;;;4.7;2.9;;;;;;;15.01;76.83984;945.1766;;;;
2022/06/18 04:51:43;;;;;;;4.4;3;;;;;;;15.06;76.90527;945.1241;;;;
2022/06/18 04:54:10;;;;;;;6.2;3.1;;;;;;;15.2;75.76367;945.0997;;;;
2022/06/18 04:56:35;;;;;;;2.5;2.3;;;;;;;15.42;75.2041;945.0984;;;;
2022/06/18 04:59:00;;;;;;;3.4;2.6;;;;;;;15.59;74.63184;945.1462;;;;
2022/06/18 05:01:25;;;;;;;5.5;3;;;;;;;15.74;74.66895;945.0536;;;;
2022/06/18 05:03:52;;;;;;;2.9;2.4;;;;;;;16.51;71.6875;945.0789;;;;
2022/06/18 05:06:17;;;;;;;3.9;2.6;;;;;;;17.49;72.1709;945.0852;;;;
2022/06/18 05:08:45;;;;;;;2.9;2.2;;;;;;;18.55;67.15918;945.0952;;;;
2022/06/18 05:11:10;;;;;;;3.5;2.1;;;;;;;19.58;61.24121;945.0733;;;;
2022/06/18 05:13:38;;;;;;;2.6;2.4;;;;;;;20.15;62.09375;945.1025;;;;
2022/06/18 05:16:03;;;;;;;2.2;2;;;;;;;19.9;58.61621;945.1022;;;;
2022/06/18 05:18:30;;;;;;;2.8;2.2;;;;;;;20.26;57.37891;945.093;;;;
2022/06/18 05:20:55;;;;;;;2.1;1.9;;;;;;;20.63;56.41113;945.1439;;;;
2022/06/18 05:23:20;;;;;;;2.3;1.8;;;;;;;21.08;53.67285;945.1625;;;;
2022/06/18 05:25:45;;;;;;;3.9;2;;;;;;;21.6;52.53027;945.0909;;;;
2022/06/18 05:28:10;;;;;;;2;1.7;;;;;;;22;50.08105;945.1633;;;;
2022/06/18 05:30:37;;;;;;;2.8;2;;;;;;;22.17;48.92773;945.1404;;;;
2022/06/18 05:33:03;;;;;;;2;1.8;;;;;;;22.38;52.1416;945.1152;;;;
2022/06/18 05:35:30;;;;;;;2.6;2;;;;;;;22.66;47.51465;945.0747;;;;
2022/06/18 05:37:55;;;;;;;2.6;1.7;;;;;;;22.88;47.64355;945.0758;;;;
2022/06/18 05:40:23;;;;;;;3.5;1.8;;;;;;;23.98;45.88965;945.0329;;;;
2022/06/18 05:42:48;;;;;;;2.2;1.7;;;;;;;24.7;43.76953;945.0114;;;;
2022/06/18 05:45:15;;;;;;;2.4;1.8;;;;;;;24.86;43.62109;944.9376;;;;
2022/06/18 05:47:40;;;;;;;2.2;1.7;;;;;;;25.22;43.23145;944.882;;;;
2022/06/18 05:50:07;;;;;;;2;1.8;;;;;;;24.73;43.8916;944.9026;;;;
2022/06/18 05:52:32;;;;;;;2;1.8;;;;;;;25.53;42.44629;944.8531;;;;
2022/06/18 05:54:57;;;;;;;1.9;1.8;;;;;;;26.53;40.45605;944.9098;;;;
2022/06/18 05:57:22;;;;;;;1.7;1.5;;;;;;;27.28;39.61035;944.9197;;;;
2022/06/18 05:59:48;;;;;;;2.7;1.8;;;;;;;27.26;39.0166;944.8762;;;;
2022/06/18 06:02:13;;;;;;;2.1;1.7;;;;;;;27.25;38.36328;944.9233;;;;
2022/06/18 06:04:42;;;;;;;2.6;1.6;;;;;;;27.52;40.91406;944.9451;;;;
2022/06/18 06:07:05;;;;;;;4.1;1.7;;;;;;;27.4;40.39258;944.9053;;;;
2022/06/18 06:11:56;;;;;;;2.4;1.7;;;;;;;27.73;39.27051;944.9097;;;;
2022/06/18 06:14:21;;;;;;;1.6;1.5;;;;;;;27.12;38.61328;944.8887;;;;
2022/06/18 06:16:49;;;;;;;3.4;1.5;;;;;;;27.54;36.76172;944.9091;;;;
2022/06/18 06:19:14;;;;;;;2.1;1.8;;;;;;;26.38;38.39551;944.9199;;;;
2022/06/18 06:21:40;;;;;;;1.5;1.4;;;;;;;27.03;37.27734;944.8976;;;;
2022/06/18 06:24:05;;;;;;;3.1;1.6;;;;;;;27.65;40.4873;944.7865;;;;
2022/06/18 06:26:31;;;;;;;1.5;1.4;;;;;;;28.39;36.75977;944.7358;;;;
2022/06/18 06:28:56;;;;;;;1.9;1.6;;;;;;;28.41;39.50781;944.7514;;;;
2022/06/18 06:31:23;;;;;;;2;1.7;;;;;;;28.68;35.66602;944.7333;;;;
2022/06/18 06:33:48;;;;;;;1.6;1.5;;;;;;;28.37;36.39063;944.7408;;;;
2022/06/18 06:36:17;;;;;;;2;1.6;;;;;;;28.56;37.45313;944.6989;;;;
2022/06/18 06:38:40;;;;;;;1.6;1.5;;;;;;;29.13;35.24902;944.6796;;;;
2022/06/18 06:41:07;;;;;;;2.5;1.8;;;;;;;29.97;33.37012;944.666;;;;
2022/06/18 06:43:32;;;;;;;3.2;2.1;;;;;;;29;34.98926;944.6453;;;;
2022/06/18 06:45:59;;;;;;;1.8;1.5;;;;;;;29.24;35.12695;944.5659;;;;
2022/06/18 06:48:24;;;;;;;1.7;1.6;;;;;;;29.6;34.73828;944.5963;;;;
2022/06/18 06:50:53;;;;;;;3.2;1.7;;;;;;;29.39;33.50586;944.5965;;;;
2022/06/18 06:53:18;;;;;;;2;1.6;;;;;;;28.39;36.7373;944.5873;;;;
2022/06/18 06:58:08;;;;;;;1.5;1.4;;;;;;;30.05;33.93652;944.5125;;;;
2022/06/18 07:00:38;;;;;;;2.4;1.5;;;;;;;30.16;33.14551;944.4864;;;;
2022/06/18 07:03:10;;;;;;;1.9;1.4;;;;;;;30.09;33.23535;944.4783;;;;
2022/06/18 07:05:35;;;;;;;1.4;1.3;;;;;;;29.94;33.95215;944.4936;;;;
2022/06/18 07:08:03;;;;;;;1.4;1.3;;;;;;;30.06;32.45801;944.4567;;;;
2022/06/18 07:10:28;;;;;;;2.1;1.4;;;;;;;30.7;32.93457;944.4694;;;;
2022/06/18 07:12:53;;;;;;;1.8;1.7;;;;;;;30.2;32.82617;944.3995;;;;
2022/06/18 07:15:19;;;;;;;2.3;1.5;;;;;;;30.97;31.43457;944.3427;;;;
2022/06/18 07:17:47;;;;;;;2.5;1.4;;;;;;;32.28;29.64355;944.3106;;;;
2022/06/18 07:20:11;;;;;;;1.6;1.2;;;;;;;33.02;29.76367;944.3014;;;;
2022/06/18 07:22:40;;;;;;;1.8;1.4;;;;;;;33.36;27.53711;944.2548;;;;
2022/06/18 07:25:06;;;;;;;1.5;1.4;;;;;;;32.88;28.51758;944.3032;;;;
2022/06/18 07:27:36;;;;;;;1.6;1.2;;;;;;;32.99;27.10742;944.2438;;;;
2022/06/18 07:30:01;;;;;;;2.3;1.3;;;;;;;30.99;28.51855;944.1906;;;;
2022/06/18 07:32:27;;;;;;;1.3;1.2;;;;;;;32.54;28.44824;944.1884;;;;
2022/06/18 07:34:53;;;;;;;1.3;1.2;;;;;;;32.66;27.33984;944.1178;;;;
2022/06/18 07:37:20;;;;;;;1.5;1.4;;;;;;;31.86;28.17773;944.0287;;;;
2022/06/18 07:39:45;;;;;;;1.3;1.2;;;;;;;32.8;27.99609;944.0467;;;;
2022/06/18 07:42:12;;;;;;;1.9;1.4;;;;;;;32.7;27.59375;944.0092;;;;
2022/06/18 07:44:37;;;;;;;1.3;1.2;;;;;;;31.9;28.64844;943.9764;;;;
2022/06/18 07:47:03;;;;;;;1.9;1.6;;;;;;;33.8;26.53027;943.9171;;;;
2022/06/18 07:49:27;;;;;;;1.6;1.3;;;;;;;33.6;26.25391;943.8881;;;;
2022/06/18 07:51:53;;;;;;;1.3;1.2;;;;;;;33.72;26.0918;943.8826;;;;
2022/06/18 07:54:20;;;;;;;2.8;1.5;;;;;;;33.9;26.18652;943.8049;;;;
2022/06/18 07:56:45;;;;;;;2.3;1.5;;;;;;;34.22;26.25293;943.8155;;;;
2022/06/18 07:59:17;;;;;;;1.6;1.5;;;;;;;35.21;25.6582;943.8002;;;;
2022/06/18 08:01:47;;;;;;;1.3;1.2;;;;;;;34.96;23.67871;943.7687;;;;
2022/06/18 08:04:17;;;;;;;1.4;1.3;;;;;;;34.26;26.52051;943.7512;;;;
2022/06/18 08:06:50;;;;;;;1.7;1.5;;;;;;;34.21;26.73438;943.7737;;;;
2022/06/18 08:09:18;;;;;;;1.2;1.1;;;;;;;33.28;25.69434;943.7255;;;;
2022/06/18 08:11:43;;;;;;;1.4;1.3;;;;;;;33.49;26.3916;943.6273;;;;
2022/06/18 08:14:08;;;;;;;1.2;1.2;;;;;;;32.24;26.97852;943.5583;;;;
2022/06/18 08:16:37;;;;;;;2.5;1.3;;;;;;;33.89;25.01855;943.5504;;;;
2022/06/18 08:19:02;;;;;;;2.6;1.3;;;;;;;34.62;24.17871;943.5336;;;;
2022/06/18 08:21:28;;;;;;;1.1;1.1;;;;;;;33.8;23.88281;943.4592;;;;
2022/06/18 08:23:53;;;;;;;1;1;;;;;;;34.89;24.56738;943.5286;;;;
2022/06/18 08:26:21;;;;;;;1.8;1.2;;;;;;;34.42;23.91504;943.5041;;;;
2022/06/18 08:28:46;;;;;;;1.3;1.2;;;;;;;35.48;23.35547;943.4506;;;;
2022/06/18 08:31:15;;;;;;;1.3;1.2;;;;;;;34.58;22.62207;943.3624;;;;
2022/06/18 08:33:39;;;;;;;1.7;1.2;;;;;;;35.95;21.65039;943.3189;;;;
2022/06/18 08:36:08;;;;;;;1.8;1.2;;;;;;;36.98;21.7959;943.3172;;;;
2022/06/18 08:38:37;;;;;;;1.6;1.2;;;;;;;37.49;20.0127;943.255;;;;
2022/06/18 08:41:07;;;;;;;1.4;1.3;;;;;;;36.7;20.57129;943.2211;;;;
2022/06/18 08:43:32;;;;;;;1.5;1.1;;;;;;;36.21;19.60645;943.1799;;;;
2022/06/18 08:45:59;;;;;;;2;0.9;;;;;;;37.22;19.67383;943.1406;;;;
2022/06/18 08:48:24;;;;;;;1.4;1;;;;;;;37.61;23.17285;943.1544;;;;
2022/06/18 08:50:51;;;;;;;1;1;;;;;;;37.85;22.48047;943.1355;;;;
2022/06/18 08:53:17;;;;;;;2.1;1.1;;;;;;;38.2;21.01563;943.1161;;;;
2022/06/18 08:55:45;;;;;;;1.7;1.1;;;;;;;36.64;21.22266;943.0314;;;;
2022/06/18 08:58:14;;;;;;;1;0.9;;;;;;;34.81;22.57324;942.9847;;;;
2022/06/18 09:00:39;;;;;;;1.3;0.9;;;;;;;35.1;23.16699;942.9981;;;;
2022/06/18 09:03:08;;;;;;;2;1;;;;;;;34.73;22.72656;942.9526;;;;
2022/06/18 09:05:33;;;;;;;1.5;1;;;;;;;34.22;21.72461;942.9988;;;;
2022/06/18 09:08:01;;;;;;;1.2;1.1;;;;;;;35.26;20.97754;943.0134;;;;
2022/06/18 09:10:29;;;;;;;1.1;1;;;;;;;36.16;23.84961;942.9612;;;;
2022/06/18 09:12:54;;;;;;;1.4;0.8;;;;;;;36.33;21.4502;942.949;;;;
2022/06/18 09:15:21;;;;;;;0.9;0.9;;;;;;;36.39;22.67578;942.8658;;;;
2022/06/18 09:17:48;;;;;;;1.6;1.2;;;;;;;36.76;22.8877;942.8748;;;;
2022/06/18 09:20:14;;;;;;;1.4;1.2;;;;;;;35.58;22.46582;942.8803;;;;
2022/06/18 09:22:39;;;;;;;0.8;0.8;;;;;;;35.54;24.40918;942.8242;;;;
2022/06/18 09:25:05;;;;;;;0.9;0.9;;;;;;;34.51;26.66797;942.8197;;;;
2022/06/18 09:27:30;;;;;;;1;0.9;;;;;;;34.12;24.70605;942.8372;;;;
2022/06/18 09:29:57;;;;;;;1.5;0.8;;;;;;;35.04;25.75781;942.8248;;;;
2022/06/18 09:32:21;;;;;;;2.4;1;;;;;;;35.75;20.98828;942.7697;;;;
2022/06/18 09:34:47;;;;;;;0.9;0.9;;;;;;;35.97;20.30957;942.7147;;;;
2022/06/18 09:37:12;;;;;;;0.7;0.7;;;;;;;36.04;20.92969;942.7119;;;;
2022/06/18 09:39:37;;;;;;;0.9;0.8;;;;;;;35.68;20.80371;942.7231;;;;
2022/06/18 09:42:02;;;;;;;1.2;0.9;;;;;;;35.16;21.91504;942.6928;;;;
2022/06/18 09:44:33;;;;;;;2.7;0.8;;;;;;;35.1;23.09375;942.6531;;;;
2022/06/18 09:46:58;;;;;;;1;0.9;;;;;;;34.97;24.02832;942.6794;;;;
2022/06/18 09:49:24;;;;;;;1;0.9;;;;;;;34.9;27.52344;942.6675;;;;
2022/06/18 09:51:55;;;;;;;1.5;0.8;;;;;;;35.17;24.00293;942.6238;;;;
2022/06/18 09:54:19;;;;;;;1.5;1.3;;;;;;;34.26;23.48535;942.6553;;;;
2022/06/18 09:56:44;;;;;;;1.2;0.9;;;;;;;34.35;24.5498;942.6755;;;;
2022/06/18 09:59:12;;;;;;;1.9;1;;;;;;;34.38;25.58789;942.6903;;;;
2022/06/18 10:01:37;;;;;;;1.4;0.9;;;;;;;34.59;27.31152;942.6225;;;;
2022/06/18 10:06:55;;;;;;;1.9;1;;;;;;;33.12;24.29199;942.6278;;;;
2022/06/18 10:09:05;;;;;;;1.3;0.8;;;;;;;33.52;25.41895;942.6323;;;;
2022/06/18 10:11:30;;;;;;;0.8;0.8;;;;;;;33.35;27.92188;942.5927;;;;
2022/06/18 10:13:58;;;;;;;1.7;0.8;;;;;;;33.11;28.5918;942.584;;;;
2022/06/18 10:16:22;;;;;;;1;0.8;;;;;;;32.59;28.90723;942.5204;;;;
2022/06/18 10:18:48;;;;;;;1.7;0.8;;;;;;;32.56;28.17383;942.5041;;;;
2022/06/18 10:21:13;;;;;;;2.2;0.9;;;;;;;32.56;32.31348;942.4869;;;;
2022/06/18 10:23:38;;;;;;;3.3;1.1;;;;;;;32.37;32.64844;942.4498;;;;
2022/06/18 10:26:03;;;;;;;1.3;0.8;;;;;;;32.68;29.5127;942.3954;;;;
2022/06/18 10:28:28;;;;;;;1.7;1;;;;;;;32.59;30.70801;942.3825;;;;
2022/06/18 10:30:53;;;;;;;3.1;1.2;;;;;;;32.62;31.98145;942.3978;;;;
2022/06/18 10:33:18;;;;;;;2.4;0.9;;;;;;;32.55;29.98438;942.3342;;;;
2022/06/18 10:35:45;;;;;;;1.1;1;;;;;;;32.61;31.74121;942.3678;;;;
2022/06/18 10:38:10;;;;;;;4.1;1;;;;;;;32.55;28.0293;942.3843;;;;
2022/06/18 10:40:36;;;;;;;1.1;0.8;;;;;;;32.65;29.11523;942.325;;;;
2022/06/18 10:43:01;;;;;;;1.8;0.7;;;;;;;32.38;30.88477;942.317;;;;
2022/06/18 10:45:26;;;;;;;1.9;0.9;;;;;;;32.34;29.34766;942.3036;;;;
2022/06/18 10:47:52;;;;;;;3.6;0.9;;;;;;;32.44;28.10645;942.2302;;;;
2022/06/18 10:50:17;;;;;;;3.3;1;;;;;;;32.6;26.38867;942.228;;;;
2022/06/18 10:52:42;;;;;;;1.1;0.8;;;;;;;32.84;26.87109;942.2014;;;;
2022/06/18 10:55:07;;;;;;;3;1;;;;;;;32.91;28.5791;942.1834;;;;
2022/06/18 10:57:36;;;;;;;3.9;1.1;;;;;;;33;28.44141;942.168;;;;
2022/06/18 11:00:01;;;;;;;2.1;1;;;;;;;33.15;28.35449;942.1519;;;;
2022/06/18 11:02:30;;;;;;;5.3;1.5;;;;;;;33;29.81055;942.1091;;;;
2022/06/18 11:04:58;;;;;;;1.9;1.1;;;;;;;33.1;29;942.0945;;;;
2022/06/18 11:07:24;;;;;;;6.7;1.6;;;;;;;33.26;26.14941;942.1222;;;;
2022/06/18 11:09:49;;;;;;;3.7;1.3;;;;;;;33.2;27.07227;942.1349;;;;
2022/06/18 11:12:14;;;;;;;5.6;1.7;;;;;;;33.09;27.81055;942.0847;;;;
2022/06/18 11:14:39;;;;;;;3.3;1.2;;;;;;;33.23;27.62598;942.0736;;;;
2022/06/18 11:17:05;;;;;;;4.7;1.4;;;;;;;32.97;29.41211;942.0361;;;;
2022/06/18 11:19:32;;;;;;;4.6;1.2;;;;;;;32.59;25.21191;942.0245;;;;
2022/06/18 11:21:57;;;;;;;4.6;1.6;;;;;;;32.61;29.08984;942.0112;;;;
2022/06/18 11:24:26;;;;;;;4;1.3;;;;;;;32.84;27.89063;941.9661;;;;
2022/06/18 11:26:51;;;;;;;4.8;1.5;;;;;;;32.93;28.25684;941.933;;;;
2022/06/18 11:29:17;;;;;;;6.2;1.7;;;;;;;33.12;27.43945;941.9734;;;;
2022/06/18 11:31:42;;;;;;;4.9;1.3;;;;;;;32.93;32.92773;941.9351;;;;
2022/06/18 11:34:08;;;;;;;5.1;1.5;;;;;;;32.5;30.2334;941.8895;;;;
2022/06/18 11:36:33;;;;;;;3.9;1.5;;;;;;;32.5;29.92188;941.8492;;;;
2022/06/18 11:39:00;;;;;;;5.7;1.3;;;;;;;32.59;28.43945;941.8167;;;;
2022/06/18 11:41:30;;;;;;;5.9;1.3;;;;;;;32.51;28.79492;941.8205;;;;
2022/06/18 11:43:49;;;;;;;5.5;1.8;;;;;;;32.78;28.22266;941.7854;;;;
2022/06/18 11:46:14;;;;;;;4.3;1.6;;;;;;;32.45;28.52637;941.7631;;;;
2022/06/18 11:48:40;;;;;;;6.9;1.8;;;;;;;32.21;28.62012;941.7157;;;;
2022/06/18 11:51:05;;;;;;;9.3;2.1;;;;;;;32.19;29.00195;941.6891;;;;
2022/06/18 11:53:29;;;;;;;5.4;1.9;;;;;;;32;32.10645;941.658;;;;
2022/06/18 11:56:18;;;;;;;7.5;1.9;;;;;;;32.03;31.24512;941.5856;;;;
2022/06/18 11:58:46;;;;;;;11.9;2.1;;;;;;;32.23;31.2832;941.6249;;;;
2022/06/18 12:01:10;;;;;;;12.7;2.1;;;;;;;32.26;31.34473;941.6679;;;;
2022/06/18 12:03:36;;;;;;;10.5;1.9;;;;;;;32.35;30.36719;941.6014;;;;
2022/06/18 12:06:01;;;;;;;9.2;1.7;;;;;;;32.53;31.12402;941.6564;;;;
2022/06/18 12:08:27;;;;;;;6.2;1.5;;;;;;;32.64;29.6543;941.582;;;;
2022/06/18 12:10:52;;;;;;;8.7;1.8;;;;;;;32.78;28.57129;941.5742;;;;
2022/06/18 12:13:17;;;;;;;5.4;1.7;;;;;;;32.91;27.78711;941.5982;;;;
2022/06/18 12:15:43;;;;;;;6.6;1.5;;;;;;;32.95;28.16113;941.5381;;;;
2022/06/18 12:18:08;;;;;;;6.2;2.1;;;;;;;32.66;29.75293;941.5206;;;;
2022/06/18 12:20:33;;;;;;;9.4;2.2;;;;;;;32.85;28.2998;941.5013;;;;
2022/06/18 12:22:58;;;;;;;6.5;1.9;;;;;;;32.63;31.58691;941.4324;;;;
2022/06/18 12:25:23;;;;;;;6.9;1.9;;;;;;;32.27;28.49121;941.373;;;;
2022/06/18 12:27:49;;;;;;;10.5;2.2;;;;;;;31.98;31.60059;941.2869;;;;
2022/06/18 12:30:16;;;;;;;6.6;1.8;;;;;;;32.23;30.08398;941.3024;;;;
2022/06/18 12:32:41;;;;;;;7.2;2;;;;;;;32.32;32.02051;941.3134;;;;
2022/06/18 12:35:06;;;;;;;8.4;2.2;;;;;;;32.32;30.16211;941.2449;;;;
2022/06/18 12:37:31;;;;;;;7;1.8;;;;;;;32.4;31.25781;941.2766;;;;
2022/06/18 12:39:56;;;;;;;8.5;1.7;;;;;;;32.56;29.43359;941.2745;;;;
2022/06/18 12:42:21;;;;;;;9.2;2.1;;;;;;;32.67;28.5293;941.2879;;;;
2022/06/18 12:44:47;;;;;;;10.8;2;;;;;;;32.65;30.92773;941.2195;;;;
2022/06/18 12:47:12;;;;;;;16.9;2.8;;;;;;;32.59;31.60742;941.2407;;;;
2022/06/18 12:49:37;;;;;;;12.4;2.9;;;;;;;32.74;29.24121;941.0686;;;;
2022/06/18 12:52:04;;;;;;;12.2;2.6;;;;;;;32.83;27.8418;941.0989;;;;
2022/06/18 12:54:30;;;;;;;8.8;2;;;;;;;32.83;29.82324;941.0662;;;;
2022/06/18 12:56:54;;;;;;;10.7;2.2;;;;;;;32.86;28.85254;941.0386;;;;
2022/06/18 12:59:20;;;;;;;6.6;2.2;;;;;;;32.57;30.64551;941.0095;;;;
2022/06/18 13:01:48;;;;;;;7.5;2;;;;;;;32.65;28.92285;940.9885;;;;
2022/06/18 13:04:16;;;;;;;11.6;2.3;;;;;;;32.56;32.14551;940.9459;;;;
2022/06/18 13:06:44;;;;;;;8.5;2.2;;;;;;;32.35;33.77441;940.8881;;;;
2022/06/18 13:09:09;;;;;;;11.5;2.2;;;;;;;32.25;33.69434;940.8641;;;;
2022/06/18 13:11:35;;;;;;;9;2.4;;;;;;;32.32;30.06543;940.8617;;;;
2022/06/18 13:14:01;;;;;;;9;2.1;;;;;;;32.34;31.73438;940.875;;;;
2022/06/18 13:16:26;;;;;;;13;2.5;;;;;;;32.33;30.18555;940.8134;;;;
2022/06/18 13:18:51;;;;;;;8.2;2.5;;;;;;;32.17;33.05176;940.7246;;;;
2022/06/18 13:21:16;;;;;;;9.9;2.2;;;;;;;31.76;35.46582;940.6778;;;;
2022/06/18 13:28:39;;;;;;;7.5;1.8;;;;;;;31.94;31.19141;940.5994;;;;
2022/06/18 13:31:07;;;;;;;7.8;1.9;;;;;;;32.02;32.71875;940.5927;;;;
2022/06/18 13:33:32;;;;;;;10.6;2.8;;;;;;;32.06;32.58984;940.5044;;;;
2022/06/18 13:35:57;;;;;;;7.6;2.2;;;;;;;32.06;31.45117;940.4998;;;;
2022/06/18 13:38:25;;;;;;;9.3;2.5;;;;;;;32.02;31.05176;940.4341;;;;
2022/06/18 13:40:50;;;;;;;9;1.8;;;;;;;32.01;31.97461;940.3956;;;;
2022/06/18 13:43:17;;;;;;;8.1;2.1;;;;;;;31.94;32.86914;940.4023;;;;
2022/06/18 13:45:43;;;;;;;8.5;2.4;;;;;;;31.91;31.90723;940.3109;;;;
2022/06/18 13:48:08;;;;;;;11.3;1.8;;;;;;;31.83;33.5791;940.3098;;;;
2022/06/18 13:50:35;;;;;;;10.4;2.6;;;;;;;31.92;31.78809;940.2723;;;;
2022/06/18 13:53:01;;;;;;;8.5;1.9;;;;;;;31.94;30.80762;940.2342;;;;
2022/06/18 13:55:25;;;;;;;7.6;2.2;;;;;;;31.94;30.45996;940.2083;;;;
2022/06/18 13:57:51;;;;;;;11.1;2.5;;;;;;;31.92;29.9668;940.1559;;;;
2022/06/18 14:00:21;;;;;;;13.1;2.6;;;;;;;31.87;33.42676;940.1387;;;;
2022/06/18 14:02:50;;;;;;;15.5;2.9;;;;;;;31.85;32.61035;940.1096;;;;
2022/06/18 14:05:17;;;;;;;10;2.5;;;;;;;31.91;30.57715;940.0964;;;;
2022/06/18 14:07:42;;;;;;;6.6;1.8;;;;;;;31.93;31.58496;940.0422;;;;
2022/06/18 14:10:14;;;;;;;8;2.3;;;;;;;31.92;33.01074;940.1046;;;;
2022/06/18 14:12:39;;;;;;;9.5;2.4;;;;;;;31.79;31.15625;940.0447;;;;
2022/06/18 14:15:04;;;;;;;8.3;2.2;;;;;;;31.68;31.47168;939.9601;;;;
2022/06/18 14:17:34;;;;;;;6.6;1.9;;;;;;;31.58;31.30957;939.9758;;;;
2022/06/18 14:20:02;;;;;;;9.8;2.3;;;;;;;31.42;34.41016;939.9444;;;;
2022/06/18 14:22:25;;;;;;;9.2;2.1;;;;;;;31.65;31.49414;939.9241;;;;
2022/06/18 14:24:53;;;;;;;10.4;2.3;;;;;;;31.81;31.91211;939.9116;;;;
2022/06/18 14:27:18;;;;;;;9;2.2;;;;;;;31.89;31.21094;939.8039;;;;
2022/06/18 14:29:43;;;;;;;9.1;2.3;;;;;;;31.95;31.55078;939.7139;;;;
2022/06/18 14:32:08;;;;;;;15.3;2.6;;;;;;;31.92;31.98047;939.6705;;;;
2022/06/18 14:34:35;;;;;;;9.7;2.3;;;;;;;31.91;32.65137;939.6686;;;;
2022/06/18 14:37:00;;;;;;;12.1;2.7;;;;;;;31.96;30.41309;939.6638;;;;
2022/06/18 14:39:26;;;;;;;12.1;2.4;;;;;;;31.98;30.75;939.564;;;;